createdAt,value
2018-07-08T00:01:30.592Z,98381.70
2018-07-08T00:03:59.176Z,98384.09
2018-07-08T00:06:27.751Z,98380.63
2018-07-08T00:08:56.324Z,98381.72
2018-07-08T00:11:28.813Z,98377.98
2018-07-08T00:13:57.471Z,98380.36
2018-07-08T00:16:26.018Z,98380.42
2018-07-08T00:18:54.621Z,98376.80
2018-07-08T00:21:23.230Z,98383.20
2018-07-08T00:23:57.774Z,98383.30
2018-07-08T00:26:26.411Z,98383.75
2018-07-08T00:28:55.215Z,98386.13
2018-07-08T00:31:23.776Z,98390.63
2018-07-08T00:33:52.637Z,98390.48
2018-07-08T00:36:21.209Z,98393.23
2018-07-08T00:38:49.747Z,98393.55
2018-07-08T00:41:18.309Z,98389.98
2018-07-08T00:43:46.795Z,98391.12
2018-07-08T00:46:15.372Z,98391.27
2018-07-08T00:48:43.917Z,98387.99
2018-07-08T00:51:12.456Z,98393.77
2018-07-08T00:53:40.995Z,98386.84
2018-07-08T00:56:09.577Z,98392.69
2018-07-08T00:58:38.145Z,98388.34
2018-07-08T01:01:06.745Z,98382.05
2018-07-08T01:03:35.380Z,98388.45
2018-07-08T01:06:04.033Z,98387.64
2018-07-08T01:08:32.625Z,98387.55
2018-07-08T01:11:02.963Z,98390.78
2018-07-08T01:13:31.594Z,98387.75
2018-07-08T01:16:00.125Z,98393.08
2018-07-08T01:18:28.701Z,98392.19
2018-07-08T01:20:57.265Z,98396.02
2018-07-08T01:23:25.816Z,98384.70
2018-07-08T01:26:06.027Z,98383.41
2018-07-08T01:28:34.629Z,98387.05
2018-07-08T01:31:03.180Z,98385.20
2018-07-08T01:33:31.789Z,98378.95
2018-07-08T01:36:00.369Z,98367.78
2018-07-08T01:38:28.956Z,98374.21
2018-07-08T01:40:57.851Z,98372.59
2018-07-08T01:43:26.562Z,98374.59
2018-07-08T01:45:55.220Z,98367.39
2018-07-08T01:48:23.762Z,98365.28
2018-07-08T01:50:52.330Z,98364.20
2018-07-08T01:53:21.954Z,98368.75
2018-07-08T01:55:50.681Z,98368.91
2018-07-08T01:58:19.257Z,98374.77
2018-07-08T02:00:47.952Z,98372.88
2018-07-08T02:03:16.812Z,98372.88
2018-07-08T02:05:45.363Z,98373.35
2018-07-08T02:08:14.263Z,98365.05
2018-07-08T02:10:42.908Z,98371.95
2018-07-08T02:13:11.560Z,98369.84
2018-07-08T02:15:41.901Z,98369.66
2018-07-08T02:18:10.492Z,98365.58
2018-07-08T02:20:40.068Z,98369.74
2018-07-08T02:23:08.649Z,98368.98
2018-07-08T02:25:37.533Z,98377.55
2018-07-08T02:28:08.594Z,98375.94
2018-07-08T02:30:37.183Z,98369.25
2018-07-08T02:33:05.867Z,98367.88
2018-07-08T02:35:35.070Z,98365.85
2018-07-08T02:38:03.675Z,98370.02
2018-07-08T02:40:32.269Z,98371.41
2018-07-08T02:43:00.865Z,98364.15
2018-07-08T02:45:29.474Z,98366.47
2018-07-08T02:47:58.089Z,98370.81
2018-07-08T02:50:26.661Z,98372.61
2018-07-08T02:52:55.279Z,98372.09
2018-07-08T02:55:23.809Z,98370.72
2018-07-08T02:57:52.397Z,98371.64
2018-07-08T03:00:21.030Z,98378.50
2018-07-08T03:02:49.633Z,98369.92
2018-07-08T03:05:18.226Z,98370.34
2018-07-08T03:07:46.795Z,98375.14
2018-07-08T03:10:16.029Z,98374.27
2018-07-08T03:12:44.653Z,98369.72
2018-07-08T03:15:13.264Z,98367.88
2018-07-08T03:17:41.857Z,98372.92
2018-07-08T03:20:10.441Z,98374.84
2018-07-08T03:22:38.983Z,98375.93
2018-07-08T03:25:07.637Z,98377.44
2018-07-08T03:27:36.185Z,98379.14
2018-07-08T03:30:04.789Z,98380.29
2018-07-08T03:32:33.365Z,98372.57
2018-07-08T03:35:01.906Z,98381.30
2018-07-08T03:37:30.491Z,98382.78
2018-07-08T03:39:59.106Z,98384.40
2018-07-08T03:42:27.676Z,98385.30
2018-07-08T03:44:57.075Z,98383.90
2018-07-08T03:47:25.632Z,98386.44
2018-07-08T03:49:54.237Z,98381.73
2018-07-08T03:52:24.472Z,98387.52
2018-07-08T03:54:53.065Z,98392.66
2018-07-08T03:57:21.629Z,98389.74
2018-07-08T03:59:50.237Z,98395.71
2018-07-08T04:02:18.785Z,98394.27
2018-07-08T04:04:47.342Z,98397.30
2018-07-08T04:07:15.871Z,98396.42
2018-07-08T04:09:44.438Z,98395.52
2018-07-08T04:12:13.009Z,98397.44
2018-07-08T04:14:42.878Z,98399.24
2018-07-08T04:17:11.489Z,98403.08
2018-07-08T04:19:40.081Z,98406.86
2018-07-08T04:22:08.656Z,98402.56
2018-07-08T04:24:37.277Z,98405.52
2018-07-08T04:27:06.273Z,98410.33
2018-07-08T04:29:34.826Z,98403.20
2018-07-08T04:32:03.416Z,98400.98
2018-07-08T04:34:31.973Z,98397.68
2018-07-08T04:37:00.642Z,98404.58
2018-07-08T04:39:30.864Z,98399.12
2018-07-08T04:41:59.413Z,98403.13
2018-07-08T04:44:27.960Z,98405.42
2018-07-08T04:46:56.521Z,98410.02
2018-07-08T04:49:25.894Z,98411.23
2018-07-08T04:51:54.902Z,98410.94
2018-07-08T04:54:23.502Z,98413.42
2018-07-08T04:56:52.160Z,98419.25
2018-07-08T04:59:21.610Z,98421.55
2018-07-08T05:01:50.729Z,98418.91
2018-07-08T05:04:19.318Z,98417.37
2018-07-08T05:06:48.124Z,98417.18
2018-07-08T05:09:17.054Z,98417.06
2018-07-08T05:11:45.722Z,98418.64
2018-07-08T05:14:14.528Z,98416.98
2018-07-08T05:16:43.264Z,98414.20
2018-07-08T05:19:13.155Z,98419.64
2018-07-08T05:21:41.916Z,98419.06
2018-07-08T05:24:10.938Z,98416.25
2018-07-08T05:26:42.161Z,98413.74
2018-07-08T05:29:12.793Z,98416.97
2018-07-08T05:31:41.400Z,98414.05
2018-07-08T05:34:09.941Z,98407.73
2018-07-08T05:36:38.583Z,98415.13
2018-07-08T05:39:08.179Z,98413.13
2018-07-08T05:41:37.266Z,98406.73
2018-07-08T05:44:05.874Z,98409.14
2018-07-08T05:46:34.457Z,98411.99
2018-07-08T05:49:03.389Z,98412.50
2018-07-08T05:51:32.902Z,98411.95
2018-07-08T05:54:01.442Z,98411.75
2018-07-08T05:56:30.173Z,98411.38
2018-07-08T05:58:58.753Z,98408.38
2018-07-08T06:01:27.321Z,98406.28
2018-07-08T06:03:55.885Z,98407.47
2018-07-08T06:06:24.526Z,98412.39
2018-07-08T06:08:53.102Z,98416.46
2018-07-08T06:11:21.677Z,98412.66
2018-07-08T06:13:50.526Z,98414.02
2018-07-08T06:16:19.089Z,98415.09
2018-07-08T06:18:47.638Z,98409.41
2018-07-08T06:21:16.212Z,98409.42
2018-07-08T06:23:45.446Z,98407.81
2018-07-08T06:26:14.100Z,98412.13
2018-07-08T06:28:42.671Z,98409.69
2018-07-08T06:31:12.161Z,98411.02
2018-07-08T06:33:40.716Z,98413.12
2018-07-08T06:36:10.540Z,98406.89
2018-07-08T06:38:39.078Z,98412.17
2018-07-08T06:41:07.717Z,98413.77
2018-07-08T06:43:36.305Z,98414.73
2018-07-08T06:46:04.913Z,98418.16
2018-07-08T06:48:43.384Z,98416.76
2018-07-08T06:51:11.995Z,98419.09
2018-07-08T06:53:40.541Z,98416.94
2018-07-08T06:56:09.184Z,98420.73
2018-07-08T06:58:37.848Z,98422.53
2018-07-08T07:01:06.697Z,98424.06
2018-07-08T07:03:35.234Z,98424.86
2018-07-08T07:06:05.096Z,98422.91
2018-07-08T07:11:01.103Z,98422.41
2018-07-08T07:13:29.673Z,98417.61
2018-07-08T07:15:58.316Z,98417.70
2018-07-08T07:18:26.885Z,98417.88
2018-07-08T07:20:55.473Z,98409.27
2018-07-08T07:23:24.062Z,98415.32
2018-07-08T07:25:53.049Z,98419.29
2018-07-08T07:28:25.477Z,98411.61
2018-07-08T07:30:54.037Z,98414.09
2018-07-08T07:33:22.610Z,98409.02
2018-07-08T07:35:51.181Z,98413.17
2018-07-08T07:38:19.838Z,98411.59
2018-07-08T07:40:49.273Z,98413.58
2018-07-08T07:43:17.914Z,98411.72
2018-07-08T07:45:46.496Z,98417.91
2018-07-08T07:48:15.082Z,98418.41
2018-07-08T07:50:43.618Z,98421.38
2018-07-08T07:53:12.550Z,98417.55
2018-07-08T07:55:41.117Z,98422.95
2018-07-08T07:58:09.688Z,98415.72
2018-07-08T08:00:38.253Z,98417.59
2018-07-08T08:03:08.941Z,98423.77
2018-07-08T08:05:37.537Z,98420.29
2018-07-08T08:08:06.573Z,98414.34
2018-07-08T08:10:37.460Z,98415.66
2018-07-08T08:13:07.035Z,98417.83
2018-07-08T08:15:36.670Z,98413.00
2018-07-08T08:18:05.488Z,98412.12
2018-07-08T08:20:34.013Z,98414.27
2018-07-08T08:23:02.550Z,98397.33
2018-07-08T08:25:31.053Z,98400.01
2018-07-08T08:27:59.614Z,98395.86
2018-07-08T08:30:28.155Z,98393.25
2018-07-08T08:33:02.928Z,98391.37
2018-07-08T08:35:31.540Z,98387.09
2018-07-08T08:38:00.594Z,98384.84
2018-07-08T08:40:30.494Z,98390.31
2018-07-08T08:42:59.127Z,98383.72
2018-07-08T08:45:29.171Z,98386.14
2018-07-08T08:47:57.954Z,98383.48
2018-07-08T08:50:30.293Z,98391.57
2018-07-08T08:52:58.942Z,98387.66
2018-07-08T08:55:27.475Z,98390.98
2018-07-08T08:57:56.058Z,98394.70
2018-07-08T09:00:24.538Z,98395.25
2018-07-08T09:02:53.692Z,98389.98
2018-07-08T09:05:22.225Z,98390.41
2018-07-08T09:07:50.734Z,98387.95
2018-07-08T09:10:19.338Z,98386.81
2018-07-08T09:12:47.930Z,98389.38
2018-07-08T09:15:16.477Z,98382.19
2018-07-08T09:17:44.956Z,98383.22
2018-07-08T09:20:13.482Z,98382.98
2018-07-08T09:22:41.997Z,98378.11
2018-07-08T09:25:10.514Z,98381.88
2018-07-08T09:27:39.001Z,98386.94
2018-07-08T09:30:07.564Z,98383.18
2018-07-08T09:32:36.078Z,98376.36
2018-07-08T09:35:04.657Z,98378.38
2018-07-08T09:37:33.150Z,98377.27
2018-07-08T09:40:01.735Z,98372.44
2018-07-08T09:42:30.234Z,98365.45
2018-07-08T09:44:58.768Z,98374.69
2018-07-08T09:47:27.316Z,98381.76
2018-07-08T09:49:55.833Z,98369.47
2018-07-08T09:52:24.609Z,98373.91
2018-07-08T09:54:53.147Z,98375.02
2018-07-08T09:57:21.643Z,98372.88
2018-07-08T09:59:50.209Z,98374.19
2018-07-08T10:02:18.909Z,98375.48
2018-07-08T10:04:47.470Z,98375.87
2018-07-08T10:07:15.987Z,98370.63
2018-07-08T10:09:44.498Z,98359.45
2018-07-08T10:12:13.033Z,98363.25
2018-07-08T10:14:41.566Z,98361.91
2018-07-08T10:17:10.083Z,98361.52
2018-07-08T10:19:38.753Z,98361.52
2018-07-08T10:22:07.167Z,98349.91
2018-07-08T10:24:35.689Z,98356.70
2018-07-08T10:27:14.344Z,98341.22
2018-07-08T10:29:42.921Z,98355.16
2018-07-08T10:32:11.417Z,98351.17
2018-07-08T10:34:40.958Z,98339.82
2018-07-08T10:37:09.462Z,98347.76
2018-07-08T10:39:38.037Z,98343.59
2018-07-08T10:42:07.266Z,98345.58
2018-07-08T10:44:35.758Z,98343.17
2018-07-08T10:47:04.271Z,98350.27
2018-07-08T10:49:32.793Z,98355.31
2018-07-08T10:52:01.316Z,98354.49
2018-07-08T10:54:31.455Z,98355.32
2018-07-08T10:57:00.049Z,98355.67
2018-07-08T10:59:28.592Z,98348.58
2018-07-08T11:01:59.390Z,98346.64
2018-07-08T11:04:28.062Z,98343.02
2018-07-08T11:06:56.875Z,98338.44
2018-07-08T11:09:25.415Z,98335.88
2018-07-08T11:11:53.969Z,98332.11
2018-07-08T11:14:27.136Z,98337.19
2018-07-08T11:16:55.676Z,98328.51
2018-07-08T11:19:24.158Z,98322.26
2018-07-08T11:21:52.767Z,98322.63
2018-07-08T11:24:23.186Z,98323.02
2018-07-08T11:26:51.688Z,98323.80
2018-07-08T11:29:20.199Z,98326.52
2018-07-08T11:31:48.722Z,98330.06
2018-07-08T11:34:17.229Z,98328.86
2018-07-08T11:36:46.027Z,98321.38
2018-07-08T11:39:14.545Z,98315.53
2018-07-08T11:41:43.105Z,98315.64
2018-07-08T11:44:11.599Z,98312.72
2018-07-08T11:46:40.136Z,98313.73
2018-07-08T11:49:08.994Z,98312.29
2018-07-08T11:51:37.500Z,98317.38
2018-07-08T11:54:06.357Z,98319.06
2018-07-08T11:56:34.870Z,98312.93
2018-07-08T11:59:03.342Z,98313.92
2018-07-08T12:01:31.862Z,98313.77
2018-07-08T12:04:00.340Z,98307.39
2018-07-08T12:06:28.930Z,98314.55
2018-07-08T12:08:57.357Z,98312.88
2018-07-08T12:11:25.875Z,98310.77
2018-07-08T12:13:55.325Z,98307.09
2018-07-08T12:16:23.859Z,98304.28
2018-07-08T12:18:52.348Z,98302.23
2018-07-08T12:21:20.924Z,98302.16
2018-07-08T12:23:49.981Z,98294.50
2018-07-08T12:26:18.667Z,98299.13
2018-07-08T12:28:47.192Z,98295.34
2018-07-08T12:31:15.753Z,98288.32
2018-07-08T12:33:44.437Z,98289.24
2018-07-08T12:36:12.918Z,98286.73
2018-07-08T12:38:41.480Z,98280.55
2018-07-08T12:41:09.954Z,98281.94
2018-07-08T12:43:38.487Z,98274.07
2018-07-08T12:46:06.981Z,98272.16
2018-07-08T12:48:35.660Z,98266.11
2018-07-08T12:51:04.229Z,98259.06
2018-07-08T12:53:32.782Z,98265.66
2018-07-08T12:56:01.393Z,98263.16
2018-07-08T12:58:29.975Z,98262.01
2018-07-08T13:01:00.808Z,98259.33
2018-07-08T13:03:29.449Z,98253.66
2018-07-08T13:05:57.924Z,98257.27
2018-07-08T13:08:26.563Z,98250.43
2018-07-08T13:10:55.081Z,98249.20
2018-07-08T13:13:23.572Z,98248.39
2018-07-08T13:15:52.050Z,98250.07
2018-07-08T13:18:20.556Z,98249.89
2018-07-08T13:20:49.023Z,98250.48
2018-07-08T13:23:17.521Z,98247.77
2018-07-08T13:25:46.013Z,98248.67
2018-07-08T13:28:14.599Z,98239.33
2018-07-08T13:30:43.093Z,98251.45
2018-07-08T13:33:13.741Z,98234.84
2018-07-08T13:35:42.242Z,98242.86
2018-07-08T13:38:11.017Z,98248.77
2018-07-08T13:40:40.090Z,98244.62
2018-07-08T13:43:08.624Z,98247.65
2018-07-08T13:45:37.191Z,98246.23
2018-07-08T13:48:06.008Z,98247.73
2018-07-08T13:50:34.498Z,98245.00
2018-07-08T13:53:03.502Z,98244.78
2018-07-08T13:55:31.968Z,98245.70
2018-07-08T13:58:00.707Z,98244.28
2018-07-08T14:00:29.169Z,98243.02
2018-07-08T14:02:57.657Z,98242.82
2018-07-08T14:05:26.592Z,98240.02
2018-07-08T14:07:55.361Z,98236.05
2018-07-08T14:10:23.854Z,98240.55
2018-07-08T14:12:52.352Z,98234.52
2018-07-08T14:15:20.836Z,98237.58
2018-07-08T14:17:49.288Z,98230.17
2018-07-08T14:20:17.852Z,98221.73
2018-07-08T14:22:46.197Z,98221.72
2018-07-08T14:25:14.683Z,98228.56
2018-07-08T14:27:43.176Z,98220.75
2018-07-08T14:30:11.628Z,98230.77
2018-07-08T14:32:40.062Z,98219.39
2018-07-08T14:35:08.633Z,98220.95
2018-07-08T14:37:37.112Z,98223.67
2018-07-08T14:40:06.505Z,98221.62
2018-07-08T14:42:34.953Z,98222.84
2018-07-08T14:45:03.494Z,98230.95
2018-07-08T14:47:31.933Z,98227.08
2018-07-08T14:50:00.482Z,98218.32
2018-07-08T14:52:28.961Z,98219.55
2018-07-08T14:54:57.476Z,98218.74
2018-07-08T14:57:25.923Z,98220.86
2018-07-08T14:59:54.417Z,98223.88
2018-07-08T15:02:22.844Z,98228.75
2018-07-08T15:04:51.345Z,98221.89
2018-07-08T15:07:19.858Z,98221.85
2018-07-08T15:09:49.249Z,98218.27
2018-07-08T15:12:17.700Z,98228.09
2018-07-08T15:14:46.188Z,98219.97
2018-07-08T15:17:14.695Z,98215.98
2018-07-08T15:19:43.222Z,98217.02
2018-07-08T15:22:11.702Z,98220.09
2018-07-08T15:24:40.327Z,98212.51
2018-07-08T15:27:10.532Z,98215.57
2018-07-08T15:29:39.177Z,98214.44
2018-07-08T15:32:07.640Z,98205.77
2018-07-08T15:34:36.298Z,98207.11
2018-07-08T15:37:04.748Z,98211.42
2018-07-08T15:39:33.327Z,98209.33
2018-07-08T15:42:01.878Z,98209.30
2018-07-08T15:44:30.385Z,98209.63
2018-07-08T15:46:58.952Z,98216.22
2018-07-08T15:49:27.475Z,98206.43
2018-07-08T15:51:55.903Z,98207.20
2018-07-08T15:54:24.425Z,98203.83
2018-07-08T15:56:53.045Z,98209.81
2018-07-08T15:59:22.932Z,98204.94
2018-07-08T16:01:51.535Z,98207.93
2018-07-08T16:04:20.082Z,98206.48
2018-07-08T16:06:48.598Z,98208.39
2018-07-08T16:09:18.122Z,98211.33
2018-07-08T16:11:46.746Z,98210.35
2018-07-08T16:14:15.262Z,98199.05
2018-07-08T16:16:43.813Z,98202.52
2018-07-08T16:19:14.561Z,98206.39
2018-07-08T16:21:43.076Z,98203.62
2018-07-08T16:24:11.574Z,98213.12
2018-07-08T16:26:40.078Z,98209.03
2018-07-08T16:29:08.559Z,98215.56
2018-07-08T16:31:37.087Z,98212.56
2018-07-08T16:34:05.608Z,98212.31
2018-07-08T16:36:34.093Z,98214.91
2018-07-08T16:39:02.613Z,98207.56
2018-07-08T16:41:32.150Z,98213.39
2018-07-08T16:44:03.148Z,98210.05
2018-07-08T16:46:35.369Z,98212.34
2018-07-08T16:49:03.900Z,98211.28
2018-07-08T16:51:32.393Z,98207.63
2018-07-08T16:54:00.900Z,98217.27
2018-07-08T16:56:29.395Z,98212.34
2018-07-08T16:58:57.966Z,98212.75
2018-07-08T17:01:26.477Z,98218.92
2018-07-08T17:03:54.949Z,98223.52
2018-07-08T17:06:23.490Z,98226.59
2018-07-08T17:08:52.671Z,98225.73
2018-07-08T17:11:21.188Z,98217.00
2018-07-08T17:13:49.694Z,98220.21
2018-07-08T17:16:18.259Z,98212.75
2018-07-08T17:18:46.767Z,98221.80
2018-07-08T17:21:15.273Z,98220.30
2018-07-08T17:23:43.740Z,98221.98
2018-07-08T17:26:12.257Z,98230.98
2018-07-08T17:28:40.778Z,98224.13
2018-07-08T17:31:09.347Z,98224.95
2018-07-08T17:33:38.753Z,98227.16
2018-07-08T17:36:07.269Z,98224.09
2018-07-08T17:38:35.771Z,98233.20
2018-07-08T17:41:04.461Z,98237.50
2018-07-08T17:43:33.009Z,98236.66
2018-07-08T17:46:01.859Z,98240.34
2018-07-08T17:48:30.450Z,98241.89
2018-07-08T17:50:59.056Z,98237.02
2018-07-08T17:53:27.599Z,98238.88
2018-07-08T17:55:56.071Z,98236.31
2018-07-08T17:58:24.591Z,98237.20
2018-07-08T18:00:53.117Z,98245.64
2018-07-08T18:03:21.685Z,98249.56
2018-07-08T18:05:51.117Z,98242.09
2018-07-08T18:08:19.658Z,98251.17
2018-07-08T18:10:48.157Z,98249.09
2018-07-08T18:13:17.121Z,98251.27
2018-07-08T18:15:45.630Z,98248.37
2018-07-08T18:18:14.185Z,98249.58
2018-07-08T18:20:42.685Z,98242.80
2018-07-08T18:23:11.235Z,98245.92
2018-07-08T18:25:39.761Z,98248.44
2018-07-08T18:28:08.258Z,98246.52
2018-07-08T18:30:37.509Z,98250.44
2018-07-08T18:33:06.654Z,98255.16
2018-07-08T18:35:35.181Z,98263.09
2018-07-08T18:38:03.781Z,98267.81
2018-07-08T18:40:32.629Z,98273.16
2018-07-08T18:43:01.569Z,98268.94
2018-07-08T18:45:30.119Z,98276.93
2018-07-08T18:47:58.625Z,98276.25
2018-07-08T18:50:27.110Z,98278.44
2018-07-08T18:52:55.636Z,98278.39
2018-07-08T18:55:24.159Z,98278.58
2018-07-08T18:57:52.718Z,98278.79
2018-07-08T19:00:21.181Z,98277.28
2018-07-08T19:02:49.680Z,98296.36
2018-07-08T19:05:18.156Z,98296.58
2018-07-08T19:07:46.680Z,98299.44
2018-07-08T19:10:15.125Z,98295.23
2018-07-08T19:12:43.650Z,98300.64
2018-07-08T19:15:12.133Z,98298.08
2018-07-08T19:17:40.622Z,98305.39
2018-07-08T19:20:09.093Z,98305.03
2018-07-08T19:22:37.641Z,98306.12
2018-07-08T19:25:06.135Z,98301.44
2018-07-08T19:27:34.568Z,98307.52
2018-07-08T19:30:03.344Z,98315.20
2018-07-08T19:32:32.269Z,98317.28
2018-07-08T19:35:01.181Z,98320.06
2018-07-08T19:37:30.264Z,98323.95
2018-07-08T19:39:59.773Z,98326.52
2018-07-08T19:42:28.257Z,98326.11
2018-07-08T19:44:57.461Z,98328.05
2018-07-08T19:47:25.957Z,98331.70
2018-07-08T19:49:54.672Z,98333.34
2018-07-08T19:52:23.225Z,98335.24
2018-07-08T19:54:52.034Z,98340.35
2018-07-08T19:57:20.639Z,98339.23
2018-07-08T19:59:49.590Z,98339.84
2018-07-08T20:02:18.077Z,98342.25
2018-07-08T20:04:47.354Z,98346.23
2018-07-08T20:07:16.218Z,98351.55
2018-07-08T20:09:44.790Z,98352.86
2018-07-08T20:12:13.729Z,98350.84
2018-07-08T20:14:42.341Z,98349.53
2018-07-08T20:17:10.915Z,98352.23
2018-07-08T20:19:39.497Z,98357.16
2018-07-08T20:22:08.326Z,98357.53
2018-07-08T20:24:36.878Z,98353.53
2018-07-08T20:27:05.786Z,98356.77
2018-07-08T20:29:34.614Z,98361.11
2018-07-08T20:32:03.172Z,98358.75
2018-07-08T20:34:31.828Z,98363.00
2018-07-08T20:37:00.433Z,98362.55
2018-07-08T20:39:28.997Z,98360.35
2018-07-08T20:41:57.574Z,98365.71
2018-07-08T20:44:26.421Z,98368.63
2018-07-08T20:46:55.097Z,98373.55
2018-07-08T20:49:24.006Z,98376.18
2018-07-08T20:51:52.645Z,98376.23
2018-07-08T20:54:21.240Z,98376.24
2018-07-08T20:56:50.120Z,98376.61
2018-07-08T20:59:19.248Z,98374.29
2018-07-08T21:01:47.733Z,98380.59
2018-07-08T21:04:16.268Z,98374.88
2018-07-08T21:06:45.213Z,98377.11
2018-07-08T21:09:15.186Z,98371.52
2018-07-08T21:11:43.743Z,98371.87
2018-07-08T21:14:12.278Z,98374.98
2018-07-08T21:16:40.857Z,98377.83
2018-07-08T21:19:09.358Z,98376.58
2018-07-08T21:21:38.065Z,98378.81
2018-07-08T21:24:06.655Z,98376.67
2018-07-08T21:26:35.403Z,98381.31
2018-07-08T21:29:04.058Z,98376.43
2018-07-08T21:31:32.625Z,98373.80
2018-07-08T21:34:01.454Z,98374.87
2018-07-08T21:36:30.046Z,98373.59
2018-07-08T21:38:58.562Z,98369.81
2018-07-08T21:41:27.146Z,98372.87
2018-07-08T21:43:55.623Z,98376.11
2018-07-08T21:46:24.697Z,98376.14
2018-07-08T21:48:53.203Z,98378.91
2018-07-08T21:51:21.786Z,98377.87
2018-07-08T21:53:50.350Z,98382.97
2018-07-08T21:56:18.938Z,98382.45
2018-07-08T21:58:47.402Z,98384.38
2018-07-08T22:01:17.323Z,98379.23
2018-07-08T22:03:46.483Z,98381.69
2018-07-08T22:06:15.804Z,98384.14
2018-07-08T22:08:44.389Z,98385.77
2018-07-08T22:11:12.904Z,98381.78
2018-07-08T22:13:41.833Z,98391.51
2018-07-08T22:16:10.386Z,98384.45
2018-07-08T22:18:39.205Z,98385.30
2018-07-08T22:21:08.745Z,98380.97
2018-07-08T22:23:37.350Z,98387.45
2018-07-08T22:26:06.014Z,98388.83
2018-07-08T22:28:34.544Z,98393.99
2018-07-08T22:31:03.625Z,98392.64
2018-07-08T22:33:32.145Z,98389.41
2018-07-08T22:36:00.674Z,98392.13
2018-07-08T22:38:29.614Z,98388.59
2018-07-08T22:40:58.201Z,98389.42
2018-07-08T22:43:26.696Z,98391.83
2018-07-08T22:45:55.198Z,98392.40
2018-07-08T22:48:23.731Z,98388.63
2018-07-08T22:50:52.217Z,98395.66
2018-07-08T22:53:20.781Z,98394.83
2018-07-08T22:55:49.331Z,98401.59
2018-07-08T22:58:17.833Z,98399.44
2018-07-08T23:00:57.674Z,98399.73
2018-07-08T23:03:48.576Z,98398.61
2018-07-08T23:06:18.492Z,98404.81
2018-07-08T23:08:47.109Z,98402.14
2018-07-08T23:11:15.633Z,98399.15
2018-07-08T23:13:44.825Z,98394.55
2018-07-08T23:16:13.364Z,98398.34
2018-07-08T23:18:41.873Z,98395.09
2018-07-08T23:21:10.482Z,98399.41
2018-07-08T23:23:39.017Z,98396.43
2018-07-08T23:26:07.742Z,98393.18
2018-07-08T23:28:37.071Z,98394.80
2018-07-08T23:31:06.245Z,98393.17
2018-07-08T23:33:34.829Z,98392.89
2018-07-08T23:36:04.125Z,98389.66
2018-07-08T23:38:32.981Z,98393.42
2018-07-08T23:41:02.425Z,98394.22
2018-07-08T23:43:31.340Z,98388.03
2018-07-08T23:46:00.521Z,98390.45
2018-07-08T23:48:29.050Z,98390.67
2018-07-08T23:50:57.652Z,98389.64
2018-07-08T23:53:26.309Z,98395.56
2018-07-08T23:55:55.137Z,98389.55
2018-07-08T23:58:23.703Z,98393.06
